sensor_id;sensor_type;location;lat;lon;timestamp;P1;durP1;ratioP1;P2;durP2;ratioP2
75167;SDS011;63748;48.088;11.476;2023-04-03T00:02:09;7.03;;;3.78;;
75167;SDS011;63748;48.088;11.476;2023-04-03T00:04:35;9.15;;;4.82;;
75167;SDS011;63748;48.088;11.476;2023-04-03T00:07:01;8.25;;;4.38;;
75167;SDS011;63748;48.088;11.476;2023-04-03T00:09:27;7.38;;;4.40;;
75167;SDS011;63748;48.088;11.476;2023-04-03T00:11:53;8.48;;;4.78;;
75167;SDS011;63748;48.088;11.476;2023-04-03T00:14:19;9.32;;;4.78;;
75167;SDS011;63748;48.088;11.476;2023-04-03T00:16:45;5.90;;;3.42;;
75167;SDS011;63748;48.088;11.476;2023-04-03T00:19:11;7.43;;;4.60;;
75167;SDS011;63748;48.088;11.476;2023-04-03T00:21:38;6.30;;;4.32;;
75167;SDS011;63748;48.088;11.476;2023-04-03T00:24:05;6.30;;;4.60;;
75167;SDS011;63748;48.088;11.476;2023-04-03T00:26:31;7.03;;;4.15;;
75167;SDS011;63748;48.088;11.476;2023-04-03T00:28:57;9.65;;;4.63;;
75167;SDS011;63748;48.088;11.476;2023-04-03T00:31:23;7.35;;;4.85;;
75167;SDS011;63748;48.088;11.476;2023-04-03T00:33:50;7.30;;;4.57;;
75167;SDS011;63748;48.088;11.476;2023-04-03T00:36:16;7.88;;;4.38;;
75167;SDS011;63748;48.088;11.476;2023-04-03T00:38:42;9.15;;;4.63;;
75167;SDS011;63748;48.088;11.476;2023-04-03T00:41:08;8.68;;;4.57;;
75167;SDS011;63748;48.088;11.476;2023-04-03T00:43:34;8.55;;;4.47;;
75167;SDS011;63748;48.088;11.476;2023-04-03T00:46:00;6.70;;;3.72;;
75167;SDS011;63748;48.088;11.476;2023-04-03T00:50:58;8.07;;;4.85;;
75167;SDS011;63748;48.088;11.476;2023-04-03T00:53:26;7.65;;;4.00;;
75167;SDS011;63748;48.088;11.476;2023-04-03T00:55:54;7.93;;;4.38;;
75167;SDS011;63748;48.088;11.476;2023-04-03T00:58:21;6.40;;;3.78;;
75167;SDS011;63748;48.088;11.476;2023-04-03T01:00:51;7.25;;;4.30;;
75167;SDS011;63748;48.088;11.476;2023-04-03T01:03:21;8.98;;;3.80;;
75167;SDS011;63748;48.088;11.476;2023-04-03T01:05:47;5.93;;;4.10;;
75167;SDS011;63748;48.088;11.476;2023-04-03T01:08:14;8.15;;;4.40;;
75167;SDS011;63748;48.088;11.476;2023-04-03T01:10:40;5.72;;;4.05;;
75167;SDS011;63748;48.088;11.476;2023-04-03T01:13:23;7.70;;;4.78;;
75167;SDS011;63748;48.088;11.476;2023-04-03T01:15:50;9.90;;;4.55;;
75167;SDS011;63748;48.088;11.476;2023-04-03T01:18:16;7.55;;;4.35;;
75167;SDS011;63748;48.088;11.476;2023-04-03T01:20:46;6.00;;;3.78;;
75167;SDS011;63748;48.088;11.476;2023-04-03T01:26:01;6.97;;;3.65;;
75167;SDS011;63748;48.088;11.476;2023-04-03T01:28:30;6.20;;;4.13;;
75167;SDS011;63748;48.088;11.476;2023-04-03T01:33:25;9.57;;;4.40;;
75167;SDS011;63748;48.088;11.476;2023-04-03T01:35:51;5.65;;;3.95;;
75167;SDS011;63748;48.088;11.476;2023-04-03T01:38:17;7.18;;;3.97;;
75167;SDS011;63748;48.088;11.476;2023-04-03T01:40:43;5.78;;;3.78;;
75167;SDS011;63748;48.088;11.476;2023-04-03T01:43:09;7.63;;;4.68;;
75167;SDS011;63748;48.088;11.476;2023-04-03T01:45:35;5.82;;;3.80;;
75167;SDS011;63748;48.088;11.476;2023-04-03T01:48:02;5.18;;;3.22;;
75167;SDS011;63748;48.088;11.476;2023-04-03T01:50:28;7.20;;;3.85;;
75167;SDS011;63748;48.088;11.476;2023-04-03T01:52:54;7.40;;;3.47;;
75167;SDS011;63748;48.088;11.476;2023-04-03T01:55:20;7.95;;;3.80;;
75167;SDS011;63748;48.088;11.476;2023-04-03T01:57:46;5.53;;;3.40;;
75167;SDS011;63748;48.088;11.476;2023-04-03T02:00:12;6.30;;;3.90;;
75167;SDS011;63748;48.088;11.476;2023-04-03T02:02:39;5.80;;;3.53;;
75167;SDS011;63748;48.088;11.476;2023-04-03T02:05:05;6.25;;;3.33;;
75167;SDS011;63748;48.088;11.476;2023-04-03T02:07:31;4.82;;;3.72;;
75167;SDS011;63748;48.088;11.476;2023-04-03T02:09:57;6.47;;;3.92;;
75167;SDS011;63748;48.088;11.476;2023-04-03T02:12:23;8.48;;;3.97;;
75167;SDS011;63748;48.088;11.476;2023-04-03T02:14:50;6.38;;;3.67;;
75167;SDS011;63748;48.088;11.476;2023-04-03T02:17:16;5.95;;;3.50;;
75167;SDS011;63748;48.088;11.476;2023-04-03T02:19:42;5.68;;;3.97;;
75167;SDS011;63748;48.088;11.476;2023-04-03T02:22:08;8.15;;;3.90;;
75167;SDS011;63748;48.088;11.476;2023-04-03T02:24:35;6.38;;;3.60;;
75167;SDS011;63748;48.088;11.476;2023-04-03T02:27:01;4.78;;;2.83;;
75167;SDS011;63748;48.088;11.476;2023-04-03T02:29:27;5.75;;;3.60;;
75167;SDS011;63748;48.088;11.476;2023-04-03T02:31:53;7.15;;;3.90;;
75167;SDS011;63748;48.088;11.476;2023-04-03T02:34:19;7.30;;;4.43;;
75167;SDS011;63748;48.088;11.476;2023-04-03T02:36:45;6.93;;;3.90;;
75167;SDS011;63748;48.088;11.476;2023-04-03T02:39:11;6.85;;;3.72;;
75167;SDS011;63748;48.088;11.476;2023-04-03T02:41:38;6.93;;;4.18;;
75167;SDS011;63748;48.088;11.476;2023-04-03T02:44:05;5.35;;;3.47;;
75167;SDS011;63748;48.088;11.476;2023-04-03T02:46:31;6.47;;;3.83;;
75167;SDS011;63748;48.088;11.476;2023-04-03T02:48:58;7.78;;;3.92;;
75167;SDS011;63748;48.088;11.476;2023-04-03T02:51:24;6.13;;;4.05;;
75167;SDS011;63748;48.088;11.476;2023-04-03T02:53:50;6.18;;;3.90;;
75167;SDS011;63748;48.088;11.476;2023-04-03T02:56:17;5.30;;;3.63;;
75167;SDS011;63748;48.088;11.476;2023-04-03T02:58:44;5.65;;;3.38;;
75167;SDS011;63748;48.088;11.476;2023-04-03T03:01:10;6.85;;;3.83;;
75167;SDS011;63748;48.088;11.476;2023-04-03T03:03:37;4.32;;;3.65;;
75167;SDS011;63748;48.088;11.476;2023-04-03T03:06:04;6.35;;;3.78;;
75167;SDS011;63748;48.088;11.476;2023-04-03T03:08:30;6.25;;;3.95;;
75167;SDS011;63748;48.088;11.476;2023-04-03T03:10:56;6.57;;;3.83;;
75167;SDS011;63748;48.088;11.476;2023-04-03T03:13:22;5.38;;;3.20;;
75167;SDS011;63748;48.088;11.476;2023-04-03T03:15:48;6.18;;;3.35;;
75167;SDS011;63748;48.088;11.476;2023-04-03T03:18:14;6.03;;;3.70;;
75167;SDS011;63748;48.088;11.476;2023-04-03T03:20:40;6.32;;;3.63;;
75167;SDS011;63748;48.088;11.476;2023-04-03T03:23:06;7.53;;;3.80;;
75167;SDS011;63748;48.088;11.476;2023-04-03T03:25:32;6.30;;;3.65;;
75167;SDS011;63748;48.088;11.476;2023-04-03T03:27:59;3.88;;;3.38;;
75167;SDS011;63748;48.088;11.476;2023-04-03T03:30:25;3.50;;;2.47;;
75167;SDS011;63748;48.088;11.476;2023-04-03T03:32:51;6.28;;;3.22;;
75167;SDS011;63748;48.088;11.476;2023-04-03T03:35:17;5.70;;;3.80;;
75167;SDS011;63748;48.088;11.476;2023-04-03T03:37:44;7.00;;;3.97;;
75167;SDS011;63748;48.088;11.476;2023-04-03T03:40:10;6.78;;;3.10;;
75167;SDS011;63748;48.088;11.476;2023-04-03T03:42:38;5.43;;;3.58;;
75167;SDS011;63748;48.088;11.476;2023-04-03T03:45:04;7.65;;;3.25;;
75167;SDS011;63748;48.088;11.476;2023-04-03T03:47:30;5.65;;;3.42;;
75167;SDS011;63748;48.088;11.476;2023-04-03T03:49:56;5.32;;;3.38;;
75167;SDS011;63748;48.088;11.476;2023-04-03T03:52:22;4.50;;;3.20;;
75167;SDS011;63748;48.088;11.476;2023-04-03T03:54:48;5.30;;;3.35;;
75167;SDS011;63748;48.088;11.476;2023-04-03T03:57:14;4.78;;;2.55;;
75167;SDS011;63748;48.088;11.476;2023-04-03T03:59:41;4.68;;;3.38;;
75167;SDS011;63748;48.088;11.476;2023-04-03T04:02:09;5.03;;;3.20;;
75167;SDS011;63748;48.088;11.476;2023-04-03T04:04:35;4.20;;;2.80;;
75167;SDS011;63748;48.088;11.476;2023-04-03T04:07:01;5.43;;;2.97;;
75167;SDS011;63748;48.088;11.476;2023-04-03T04:09:27;4.13;;;2.78;;
75167;SDS011;63748;48.088;11.476;2023-04-03T04:11:53;4.28;;;2.40;;
75167;SDS011;63748;48.088;11.476;2023-04-03T04:14:19;3.80;;;2.45;;
75167;SDS011;63748;48.088;11.476;2023-04-03T04:16:46;3.72;;;2.83;;
75167;SDS011;63748;48.088;11.476;2023-04-03T04:19:13;4.10;;;2.45;;
75167;SDS011;63748;48.088;11.476;2023-04-03T04:21:39;3.53;;;2.72;;
75167;SDS011;63748;48.088;11.476;2023-04-03T04:24:06;7.72;;;2.92;;
75167;SDS011;63748;48.088;11.476;2023-04-03T04:26:32;5.35;;;3.13;;
75167;SDS011;63748;48.088;11.476;2023-04-03T04:28:58;4.25;;;2.63;;
75167;SDS011;63748;48.088;11.476;2023-04-03T04:31:25;4.00;;;2.28;;
75167;SDS011;63748;48.088;11.476;2023-04-03T04:33:51;3.63;;;2.72;;
75167;SDS011;63748;48.088;11.476;2023-04-03T04:36:17;3.38;;;2.10;;
75167;SDS011;63748;48.088;11.476;2023-04-03T04:38:43;5.95;;;2.83;;
75167;SDS011;63748;48.088;11.476;2023-04-03T04:41:09;4.30;;;2.25;;
75167;SDS011;63748;48.088;11.476;2023-04-03T04:43:35;3.72;;;3.00;;
75167;SDS011;63748;48.088;11.476;2023-04-03T04:46:05;3.70;;;2.22;;
75167;SDS011;63748;48.088;11.476;2023-04-03T04:48:32;4.13;;;2.45;;
75167;SDS011;63748;48.088;11.476;2023-04-03T04:50:58;4.50;;;2.60;;
75167;SDS011;63748;48.088;11.476;2023-04-03T04:53:24;3.53;;;2.17;;
75167;SDS011;63748;48.088;11.476;2023-04-03T04:55:50;6.40;;;2.80;;
75167;SDS011;63748;48.088;11.476;2023-04-03T04:58:17;4.03;;;2.88;;
75167;SDS011;63748;48.088;11.476;2023-04-03T05:00:43;4.28;;;2.53;;
75167;SDS011;63748;48.088;11.476;2023-04-03T05:03:09;4.18;;;3.22;;
75167;SDS011;63748;48.088;11.476;2023-04-03T05:05:35;3.22;;;2.15;;
75167;SDS011;63748;48.088;11.476;2023-04-03T05:08:01;4.80;;;2.20;;
75167;SDS011;63748;48.088;11.476;2023-04-03T05:10:28;4.60;;;2.50;;
75167;SDS011;63748;48.088;11.476;2023-04-03T05:12:54;4.88;;;3.22;;
75167;SDS011;63748;48.088;11.476;2023-04-03T05:15:20;8.98;;;2.70;;
75167;SDS011;63748;48.088;11.476;2023-04-03T05:17:46;3.80;;;2.40;;
75167;SDS011;63748;48.088;11.476;2023-04-03T05:20:12;3.08;;;2.60;;
75167;SDS011;63748;48.088;11.476;2023-04-03T05:22:38;2.67;;;1.80;;
75167;SDS011;63748;48.088;11.476;2023-04-03T05:25:05;4.15;;;2.65;;
75167;SDS011;63748;48.088;11.476;2023-04-03T05:27:31;3.08;;;2.00;;
75167;SDS011;63748;48.088;11.476;2023-04-03T05:29:57;3.80;;;2.33;;
75167;SDS011;63748;48.088;11.476;2023-04-03T05:32:24;4.32;;;2.88;;
75167;SDS011;63748;48.088;11.476;2023-04-03T05:34:52;3.60;;;2.10;;
75167;SDS011;63748;48.088;11.476;2023-04-03T05:37:18;5.30;;;2.60;;
75167;SDS011;63748;48.088;11.476;2023-04-03T05:39:44;3.60;;;2.35;;
75167;SDS011;63748;48.088;11.476;2023-04-03T05:42:11;2.70;;;1.58;;
75167;SDS011;63748;48.088;11.476;2023-04-03T05:44:37;3.65;;;1.92;;
75167;SDS011;63748;48.088;11.476;2023-04-03T05:47:03;2.78;;;2.42;;
75167;SDS011;63748;48.088;11.476;2023-04-03T05:49:31;4.60;;;2.83;;
75167;SDS011;63748;48.088;11.476;2023-04-03T05:51:57;2.75;;;1.92;;
75167;SDS011;63748;48.088;11.476;2023-04-03T05:54:24;4.00;;;2.58;;
75167;SDS011;63748;48.088;11.476;2023-04-03T05:56:50;3.40;;;2.45;;
75167;SDS011;63748;48.088;11.476;2023-04-03T05:59:17;3.42;;;2.45;;
75167;SDS011;63748;48.088;11.476;2023-04-03T06:01:43;3.22;;;2.33;;
75167;SDS011;63748;48.088;11.476;2023-04-03T06:04:09;4.13;;;2.47;;
75167;SDS011;63748;48.088;11.476;2023-04-03T06:09:10;3.53;;;2.53;;
75167;SDS011;63748;48.088;11.476;2023-04-03T06:11:37;4.03;;;2.45;;
75167;SDS011;63748;48.088;11.476;2023-04-03T06:14:04;5.40;;;2.95;;
75167;SDS011;63748;48.088;11.476;2023-04-03T06:16:30;5.18;;;2.13;;
75167;SDS011;63748;48.088;11.476;2023-04-03T06:18:56;3.45;;;2.15;;
75167;SDS011;63748;48.088;11.476;2023-04-03T06:21:22;6.07;;;2.53;;
75167;SDS011;63748;48.088;11.476;2023-04-03T06:23:48;3.55;;;2.25;;
75167;SDS011;63748;48.088;11.476;2023-04-03T06:26:14;3.60;;;2.38;;
75167;SDS011;63748;48.088;11.476;2023-04-03T06:28:40;5.57;;;2.75;;
75167;SDS011;63748;48.088;11.476;2023-04-03T06:31:06;5.00;;;2.30;;
75167;SDS011;63748;48.088;11.476;2023-04-03T06:33:33;3.67;;;2.00;;
75167;SDS011;63748;48.088;11.476;2023-04-03T06:36:00;3.65;;;2.33;;
75167;SDS011;63748;48.088;11.476;2023-04-03T06:38:28;2.90;;;2.28;;
75167;SDS011;63748;48.088;11.476;2023-04-03T06:40:55;3.90;;;2.00;;
75167;SDS011;63748;48.088;11.476;2023-04-03T06:43:21;3.90;;;2.30;;
75167;SDS011;63748;48.088;11.476;2023-04-03T06:45:47;4.95;;;2.78;;
75167;SDS011;63748;48.088;11.476;2023-04-03T06:48:13;4.80;;;2.60;;
75167;SDS011;63748;48.088;11.476;2023-04-03T06:50:40;3.03;;;2.53;;
75167;SDS011;63748;48.088;11.476;2023-04-03T06:53:06;5.13;;;2.28;;
75167;SDS011;63748;48.088;11.476;2023-04-03T06:55:33;4.65;;;2.00;;
75167;SDS011;63748;48.088;11.476;2023-04-03T06:57:59;5.25;;;2.58;;
75167;SDS011;63748;48.088;11.476;2023-04-03T07:00:25;5.05;;;2.40;;
75167;SDS011;63748;48.088;11.476;2023-04-03T07:02:51;4.10;;;2.50;;
75167;SDS011;63748;48.088;11.476;2023-04-03T07:05:18;5.10;;;3.03;;
75167;SDS011;63748;48.088;11.476;2023-04-03T07:07:44;6.20;;;2.72;;
75167;SDS011;63748;48.088;11.476;2023-04-03T07:10:10;3.90;;;2.22;;
75167;SDS011;63748;48.088;11.476;2023-04-03T07:12:36;5.35;;;2.50;;
75167;SDS011;63748;48.088;11.476;2023-04-03T07:15:04;1.40;;;1.10;;
75167;SDS011;63748;48.088;11.476;2023-04-03T07:17:30;6.03;;;2.30;;
75167;SDS011;63748;48.088;11.476;2023-04-03T07:19:57;4.97;;;2.33;;
75167;SDS011;63748;48.088;11.476;2023-04-03T07:22:23;5.68;;;2.38;;
75167;SDS011;63748;48.088;11.476;2023-04-03T07:24:49;8.35;;;2.60;;
75167;SDS011;63748;48.088;11.476;2023-04-03T07:27:15;3.67;;;1.80;;
75167;SDS011;63748;48.088;11.476;2023-04-03T07:29:42;3.55;;;1.77;;
75167;SDS011;63748;48.088;11.476;2023-04-03T07:32:09;6.65;;;2.47;;
75167;SDS011;63748;48.088;11.476;2023-04-03T07:34:35;5.22;;;2.65;;
75167;SDS011;63748;48.088;11.476;2023-04-03T07:37:01;3.13;;;1.95;;
75167;SDS011;63748;48.088;11.476;2023-04-03T07:39:27;3.35;;;2.47;;
75167;SDS011;63748;48.088;11.476;2023-04-03T07:41:54;3.05;;;2.28;;
75167;SDS011;63748;48.088;11.476;2023-04-03T07:44:23;3.20;;;1.50;;
75167;SDS011;63748;48.088;11.476;2023-04-03T07:46:49;5.13;;;2.38;;
75167;SDS011;63748;48.088;11.476;2023-04-03T07:49:15;3.60;;;1.98;;
75167;SDS011;63748;48.088;11.476;2023-04-03T07:51:43;3.97;;;2.42;;
75167;SDS011;63748;48.088;11.476;2023-04-03T07:54:09;3.30;;;2.03;;
75167;SDS011;63748;48.088;11.476;2023-04-03T07:56:35;3.33;;;2.30;;
75167;SDS011;63748;48.088;11.476;2023-04-03T07:59:01;3.53;;;2.17;;
75167;SDS011;63748;48.088;11.476;2023-04-03T08:01:28;3.80;;;1.90;;
75167;SDS011;63748;48.088;11.476;2023-04-03T08:03:57;2.50;;;1.80;;
75167;SDS011;63748;48.088;11.476;2023-04-03T08:06:23;2.00;;;1.48;;
75167;SDS011;63748;48.088;11.476;2023-04-03T08:08:49;6.20;;;1.92;;
75167;SDS011;63748;48.088;11.476;2023-04-03T08:11:15;3.90;;;2.47;;
75167;SDS011;63748;48.088;11.476;2023-04-03T08:13:41;3.35;;;2.30;;
75167;SDS011;63748;48.088;11.476;2023-04-03T08:16:18;5.00;;;2.22;;
75167;SDS011;63748;48.088;11.476;2023-04-03T08:18:46;3.58;;;2.83;;
75167;SDS011;63748;48.088;11.476;2023-04-03T08:21:12;2.67;;;1.52;;
75167;SDS011;63748;48.088;11.476;2023-04-03T08:23:38;3.00;;;2.25;;
75167;SDS011;63748;48.088;11.476;2023-04-03T08:26:06;4.22;;;3.30;;
75167;SDS011;63748;48.088;11.476;2023-04-03T08:28:33;5.75;;;2.80;;
75167;SDS011;63748;48.088;11.476;2023-04-03T08:31:02;4.80;;;3.35;;
75167;SDS011;63748;48.088;11.476;2023-04-03T08:33:30;4.65;;;2.83;;
75167;SDS011;63748;48.088;11.476;2023-04-03T08:35:57;3.92;;;2.40;;
75167;SDS011;63748;48.088;11.476;2023-04-03T08:38:23;3.67;;;2.63;;
75167;SDS011;63748;48.088;11.476;2023-04-03T08:40:59;4.13;;;3.08;;
75167;SDS011;63748;48.088;11.476;2023-04-03T08:43:46;6.57;;;3.42;;
75167;SDS011;63748;48.088;11.476;2023-04-03T08:46:18;2.63;;;1.77;;
75167;SDS011;63748;48.088;11.476;2023-04-03T08:48:45;4.63;;;3.08;;
75167;SDS011;63748;48.088;11.476;2023-04-03T08:51:13;3.85;;;1.95;;
75167;SDS011;63748;48.088;11.476;2023-04-03T08:53:41;5.32;;;3.40;;
75167;SDS011;63748;48.088;11.476;2023-04-03T08:56:09;6.97;;;3.80;;
75167;SDS011;63748;48.088;11.476;2023-04-03T08:58:49;4.50;;;2.60;;
75167;SDS011;63748;48.088;11.476;2023-04-03T09:01:32;4.53;;;2.85;;
75167;SDS011;63748;48.088;11.476;2023-04-03T09:04:00;5.40;;;3.15;;
75167;SDS011;63748;48.088;11.476;2023-04-03T09:06:27;4.47;;;2.83;;
75167;SDS011;63748;48.088;11.476;2023-04-03T09:16:58;4.45;;;2.90;;
75167;SDS011;63748;48.088;11.476;2023-04-03T09:21:54;6.47;;;3.25;;
75167;SDS011;63748;48.088;11.476;2023-04-03T09:24:21;3.88;;;2.75;;
75167;SDS011;63748;48.088;11.476;2023-04-03T09:26:51;3.25;;;2.35;;
75167;SDS011;63748;48.088;11.476;2023-04-03T09:29:21;4.38;;;3.53;;
75167;SDS011;63748;48.088;11.476;2023-04-03T09:31:49;2.67;;;1.80;;
75167;SDS011;63748;48.088;11.476;2023-04-03T09:34:23;5.35;;;3.33;;
75167;SDS011;63748;48.088;11.476;2023-04-03T09:36:51;3.03;;;2.05;;
75167;SDS011;63748;48.088;11.476;2023-04-03T09:39:22;2.72;;;2.50;;
75167;SDS011;63748;48.088;11.476;2023-04-03T09:44:29;5.22;;;2.80;;
75167;SDS011;63748;48.088;11.476;2023-04-03T09:46:56;3.53;;;2.65;;
75167;SDS011;63748;48.088;11.476;2023-04-03T09:49:22;5.47;;;3.00;;
75167;SDS011;63748;48.088;11.476;2023-04-03T09:51:48;4.32;;;2.85;;
75167;SDS011;63748;48.088;11.476;2023-04-03T09:57:11;4.28;;;2.97;;
75167;SDS011;63748;48.088;11.476;2023-04-03T09:59:45;4.25;;;3.00;;
75167;SDS011;63748;48.088;11.476;2023-04-03T10:04:41;3.95;;;2.85;;
75167;SDS011;63748;48.088;11.476;2023-04-03T10:07:25;3.63;;;2.97;;
75167;SDS011;63748;48.088;11.476;2023-04-03T10:09:55;4.70;;;2.70;;
75167;SDS011;63748;48.088;11.476;2023-04-03T10:12:22;8.43;;;3.88;;
75167;SDS011;63748;48.088;11.476;2023-04-03T10:14:59;8.73;;;3.33;;
75167;SDS011;63748;48.088;11.476;2023-04-03T10:19:58;3.05;;;2.55;;
75167;SDS011;63748;48.088;11.476;2023-04-03T10:27:39;4.25;;;2.90;;
75167;SDS011;63748;48.088;11.476;2023-04-03T10:35:25;5.50;;;2.70;;
75167;SDS011;63748;48.088;11.476;2023-04-03T10:40:37;4.00;;;3.15;;
75167;SDS011;63748;48.088;11.476;2023-04-03T10:43:09;4.20;;;2.95;;
75167;SDS011;63748;48.088;11.476;2023-04-03T10:48:11;4.07;;;2.58;;
75167;SDS011;63748;48.088;11.476;2023-04-03T10:51:03;4.72;;;3.10;;
75167;SDS011;63748;48.088;11.476;2023-04-03T10:58:36;5.45;;;2.97;;
75167;SDS011;63748;48.088;11.476;2023-04-03T11:01:12;4.20;;;2.55;;
75167;SDS011;63748;48.088;11.476;2023-04-03T11:03:40;5.53;;;3.20;;
75167;SDS011;63748;48.088;11.476;2023-04-03T11:06:09;1.40;;;1.23;;
75167;SDS011;63748;48.088;11.476;2023-04-03T11:11:04;4.03;;;2.65;;
75167;SDS011;63748;48.088;11.476;2023-04-03T11:13:46;4.60;;;2.00;;
75167;SDS011;63748;48.088;11.476;2023-04-03T11:16:18;2.67;;;1.77;;
75167;SDS011;63748;48.088;11.476;2023-04-03T11:18:59;3.40;;;2.65;;
75167;SDS011;63748;48.088;11.476;2023-04-03T11:21:34;1.85;;;1.50;;
75167;SDS011;63748;48.088;11.476;2023-04-03T11:24:04;3.42;;;2.25;;
75167;SDS011;63748;48.088;11.476;2023-04-03T11:26:35;3.72;;;2.08;;
75167;SDS011;63748;48.088;11.476;2023-04-03T11:29:07;4.40;;;2.47;;
75167;SDS011;63748;48.088;11.476;2023-04-03T11:36:48;4.82;;;3.03;;
75167;SDS011;63748;48.088;11.476;2023-04-03T11:39:18;2.88;;;1.77;;
75167;SDS011;63748;48.088;11.476;2023-04-03T11:41:46;5.40;;;2.97;;
75167;SDS011;63748;48.088;11.476;2023-04-03T11:44:35;3.95;;;2.67;;
75167;SDS011;63748;48.088;11.476;2023-04-03T11:46:59;5.35;;;2.00;;
75167;SDS011;63748;48.088;11.476;2023-04-03T11:52:10;5.47;;;2.20;;
75167;SDS011;63748;48.088;11.476;2023-04-03T11:57:22;3.42;;;2.45;;
75167;SDS011;63748;48.088;11.476;2023-04-03T11:59:48;2.17;;;1.63;;
75167;SDS011;63748;48.088;11.476;2023-04-03T12:07:54;3.13;;;1.70;;
75167;SDS011;63748;48.088;11.476;2023-04-03T12:10:31;3.92;;;1.95;;
75167;SDS011;63748;48.088;11.476;2023-04-03T12:12:57;3.90;;;1.80;;
75167;SDS011;63748;48.088;11.476;2023-04-03T12:15:42;1.30;;;1.20;;
75167;SDS011;63748;48.088;11.476;2023-04-03T12:20:55;5.00;;;2.75;;
75167;SDS011;63748;48.088;11.476;2023-04-03T12:23:26;3.60;;;2.10;;
75167;SDS011;63748;48.088;11.476;2023-04-03T12:25:59;1.40;;;1.08;;
75167;SDS011;63748;48.088;11.476;2023-04-03T12:28:26;2.28;;;1.50;;
75167;SDS011;63748;48.088;11.476;2023-04-03T12:30:53;4.03;;;1.67;;
75167;SDS011;63748;48.088;11.476;2023-04-03T12:36:10;4.43;;;2.10;;
75167;SDS011;63748;48.088;11.476;2023-04-03T12:41:12;2.80;;;1.27;;
75167;SDS011;63748;48.088;11.476;2023-04-03T12:43:42;2.85;;;1.77;;
75167;SDS011;63748;48.088;11.476;2023-04-03T12:46:15;1.50;;;1.00;;
75167;SDS011;63748;48.088;11.476;2023-04-03T12:48:47;3.42;;;1.40;;
75167;SDS011;63748;48.088;11.476;2023-04-03T12:51:34;2.92;;;1.80;;
75167;SDS011;63748;48.088;11.476;2023-04-03T12:54:16;1.70;;;1.23;;
75167;SDS011;63748;48.088;11.476;2023-04-03T12:56:44;2.28;;;1.42;;
75167;SDS011;63748;48.088;11.476;2023-04-03T13:01:43;2.60;;;1.60;;
75167;SDS011;63748;48.088;11.476;2023-04-03T13:04:10;3.45;;;1.77;;
75167;SDS011;63748;48.088;11.476;2023-04-03T13:06:39;2.63;;;1.50;;
75167;SDS011;63748;48.088;11.476;2023-04-03T13:09:06;3.58;;;2.05;;
75167;SDS011;63748;48.088;11.476;2023-04-03T13:11:35;3.08;;;1.85;;
75167;SDS011;63748;48.088;11.476;2023-04-03T13:14:03;3.70;;;1.63;;
75167;SDS011;63748;48.088;11.476;2023-04-03T13:16:30;2.83;;;1.42;;
75167;SDS011;63748;48.088;11.476;2023-04-03T13:18:57;2.42;;;1.63;;
75167;SDS011;63748;48.088;11.476;2023-04-03T13:21:25;2.97;;;1.67;;
75167;SDS011;63748;48.088;11.476;2023-04-03T13:23:53;7.30;;;1.63;;
75167;SDS011;63748;48.088;11.476;2023-04-03T13:26:20;2.25;;;1.45;;
75167;SDS011;63748;48.088;11.476;2023-04-03T13:28:48;1.75;;;1.42;;
75167;SDS011;63748;48.088;11.476;2023-04-03T13:33:54;1.75;;;1.50;;
75167;SDS011;63748;48.088;11.476;2023-04-03T13:36:26;3.75;;;1.80;;
75167;SDS011;63748;48.088;11.476;2023-04-03T13:39:04;2.15;;;1.63;;
75167;SDS011;63748;48.088;11.476;2023-04-03T13:44:15;1.90;;;1.40;;
75167;SDS011;63748;48.088;11.476;2023-04-03T13:46:41;3.60;;;1.70;;
75167;SDS011;63748;48.088;11.476;2023-04-03T13:49:18;3.63;;;1.40;;
75167;SDS011;63748;48.088;11.476;2023-04-03T13:51:44;1.92;;;1.45;;
75167;SDS011;63748;48.088;11.476;2023-04-03T13:54:22;2.85;;;1.17;;
75167;SDS011;63748;48.088;11.476;2023-04-03T13:56:55;2.13;;;1.38;;
75167;SDS011;63748;48.088;11.476;2023-04-03T13:59:24;2.83;;;1.50;;
75167;SDS011;63748;48.088;11.476;2023-04-03T14:04:30;2.00;;;1.30;;
75167;SDS011;63748;48.088;11.476;2023-04-03T14:06:56;1.77;;;1.33;;
75167;SDS011;63748;48.088;11.476;2023-04-03T14:09:24;2.42;;;1.60;;
75167;SDS011;63748;48.088;11.476;2023-04-03T14:11:51;1.90;;;1.30;;
75167;SDS011;63748;48.088;11.476;2023-04-03T14:14:23;2.30;;;1.30;;
75167;SDS011;63748;48.088;11.476;2023-04-03T14:16:56;2.33;;;1.60;;
75167;SDS011;63748;48.088;11.476;2023-04-03T14:19:34;2.55;;;1.10;;
75167;SDS011;63748;48.088;11.476;2023-04-03T14:22:05;3.25;;;1.73;;
75167;SDS011;63748;48.088;11.476;2023-04-03T14:24:32;2.38;;;1.45;;
75167;SDS011;63748;48.088;11.476;2023-04-03T14:26:59;2.47;;;1.38;;
75167;SDS011;63748;48.088;11.476;2023-04-03T14:29:25;2.20;;;1.10;;
75167;SDS011;63748;48.088;11.476;2023-04-03T14:31:51;2.60;;;1.50;;
75167;SDS011;63748;48.088;11.476;2023-04-03T14:34:17;1.83;;;1.17;;
75167;SDS011;63748;48.088;11.476;2023-04-03T14:36:44;1.52;;;1.20;;
75167;SDS011;63748;48.088;11.476;2023-04-03T14:39:15;4.10;;;1.40;;
75167;SDS011;63748;48.088;11.476;2023-04-03T14:41:42;2.58;;;1.27;;
75167;SDS011;63748;48.088;11.476;2023-04-03T14:44:08;2.03;;;1.13;;
75167;SDS011;63748;48.088;11.476;2023-04-03T14:46:35;3.25;;;1.08;;
75167;SDS011;63748;48.088;11.476;2023-04-03T14:49:02;1.48;;;1.10;;
75167;SDS011;63748;48.088;11.476;2023-04-03T14:51:32;3.85;;;1.50;;
75167;SDS011;63748;48.088;11.476;2023-04-03T14:53:58;1.83;;;1.17;;
75167;SDS011;63748;48.088;11.476;2023-04-03T14:56:26;1.40;;;1.20;;
75167;SDS011;63748;48.088;11.476;2023-04-03T14:59:01;2.67;;;1.50;;
75167;SDS011;63748;48.088;11.476;2023-04-03T15:01:27;2.55;;;1.40;;
75167;SDS011;63748;48.088;11.476;2023-04-03T15:03:54;2.40;;;1.23;;
75167;SDS011;63748;48.088;11.476;2023-04-03T15:06:20;1.98;;;1.60;;
75167;SDS011;63748;48.088;11.476;2023-04-03T15:08:47;2.13;;;1.15;;
75167;SDS011;63748;48.088;11.476;2023-04-03T15:11:13;2.50;;;1.50;;
75167;SDS011;63748;48.088;11.476;2023-04-03T15:13:40;1.58;;;1.20;;
75167;SDS011;63748;48.088;11.476;2023-04-03T15:16:11;1.60;;;1.00;;
75167;SDS011;63748;48.088;11.476;2023-04-03T15:18:39;1.85;;;1.23;;
75167;SDS011;63748;48.088;11.476;2023-04-03T15:21:06;2.42;;;1.00;;
75167;SDS011;63748;48.088;11.476;2023-04-03T15:23:32;1.02;;;0.77;;
75167;SDS011;63748;48.088;11.476;2023-04-03T15:25:58;1.58;;;1.02;;
75167;SDS011;63748;48.088;11.476;2023-04-03T15:28:28;1.70;;;1.00;;
75167;SDS011;63748;48.088;11.476;2023-04-03T15:30:55;2.17;;;0.95;;
75167;SDS011;63748;48.088;11.476;2023-04-03T15:33:22;1.05;;;0.77;;
75167;SDS011;63748;48.088;11.476;2023-04-03T15:35:48;1.42;;;1.10;;
75167;SDS011;63748;48.088;11.476;2023-04-03T15:38:14;3.00;;;1.38;;
75167;SDS011;63748;48.088;11.476;2023-04-03T15:40:40;1.25;;;0.85;;
75167;SDS011;63748;48.088;11.476;2023-04-03T15:43:07;1.30;;;1.00;;
75167;SDS011;63748;48.088;11.476;2023-04-03T15:45:34;1.42;;;1.02;;
75167;SDS011;63748;48.088;11.476;2023-04-03T15:48:01;3.15;;;1.25;;
75167;SDS011;63748;48.088;11.476;2023-04-03T15:50:27;1.33;;;0.93;;
75167;SDS011;63748;48.088;11.476;2023-04-03T15:52:53;2.55;;;1.27;;
75167;SDS011;63748;48.088;11.476;2023-04-03T15:55:26;1.90;;;1.00;;
75167;SDS011;63748;48.088;11.476;2023-04-03T15:57:52;1.65;;;1.00;;
75167;SDS011;63748;48.088;11.476;2023-04-03T16:00:19;2.08;;;0.90;;
75167;SDS011;63748;48.088;11.476;2023-04-03T16:02:45;1.85;;;1.00;;
75167;SDS011;63748;48.088;11.476;2023-04-03T16:05:12;3.88;;;0.95;;
75167;SDS011;63748;48.088;11.476;2023-04-03T16:07:40;2.28;;;1.10;;